Courtland, MS (38620)

5:58 AM CDT on September 04, 2015 (GMT -0500)
University-Oxford | | Change Station
CLOSE
Current Station
Airport
Location: Oxford,
Elevation: 453 ft
Nearby Weather Stations

Elev 453 ft 34.38 °N, 89.54 °W | Updated 3 minutes ago

Clear
Clear
66 °F
Feels Like 66 °F
N
0
Wind Variable Wind from North

Today
High -- | Low -- °F
--% Chance of Precip.
Yesterday
High -- | Low -- °F
Precip. -- in
6:35 AM 7:22 PM
Waning Gibbous, 60% visible
Pressure 30.00 in
Visibility 5.0 miles
Clouds Clear
Dew Point 66 °F
Humidity 100%
Rainfall 0.00 in
Snow Depth Not available.
UV 0 out of 12
Pollen 10.20 out of 12
Air Quality Not available.
Flu Activity Not available.
METAR KUOX 041055Z AUTO 00000KT 5SM CLR 19/19 A3000 RMK AO2 PWINO PNO
Pressure 30.00 in
Visibility 5.0 miles
Clouds Clear
Dew Point 66 °F
Humidity 100%
Rainfall 0.00 in
Snow Depth Not available.
UV 0 out of 12
Pollen 10.20 out of 12
Air Quality Not available.
Flu Activity Not available.
METAR KUOX 041055Z AUTO 00000KT 5SM CLR 19/19 A3000 RMK AO2 PWINO PNO

10-Day Weather Forecast

×

Almanac

Astronomy

Sep. 04, 2015 Rise Set
Actual Time
Civil Twilight
Nautical Twilight
Astronomical Twilight
Moon
Length of Visible Light
Length of Day
Tomorrow will be .
, % of the Moon is Illuminated

Today's Extremes

State Highs State Lows

Community

WunderPhotos

Upload Photos

1,852,146 photos uploaded!

WunderBlogs® & News

Nearby

Air Quality

  Air Quality AQ Index Pollutant
Not available.

Snow Depth

Station Depth Elevation

Earthquake Activity

City Distance Mag. Time & Date
Minimum magnitude displayed is 2.5.

Coastal Water Temperatures

Place Temperature

Stations

Nearby Weather Stations

Station Location Temp. Windchill Dew Point Humidity Wind Precip. Elev Updated Type